Time;durP1;ratioP1;P1;durP2;ratioP2;P2;SDS_P1;SDS_P2;PMS_P1;PMS_P2;Temp;Humidity;BMP_temperature;BMP_pressure;BME280_temperature;BME280_humidity;BME280_pressure;Samples;Min_cycle;Max_cycle;Signal;HPM_P1;HPM_P2
2021/11/14 00:02:14;;;;;;;;;;;;;;;-144.99;100.00;52603.00;5020219;28;19974;-64
2021/11/14 00:04:42;;;;;;;;;;;;;;;-144.99;100.00;52570.38;5019866;28;19982;-65
2021/11/14 00:07:08;;;;;;;;;;;;;;;-144.99;100.00;52562.25;5022671;28;19978;-65
2021/11/14 00:09:35;;;;;;;;;;;;;;;-144.99;100.00;52582.63;5016672;28;20382;-64
2021/11/14 00:12:03;;;;;;;;;;;;;;;-144.99;100.00;52554.09;5020405;28;20471;-65
2021/11/14 00:14:30;;;;;;;;;;;;;;;-144.99;100.00;52582.63;5019874;28;19989;-64
2021/11/14 00:16:56;;;;;;;;;;;;;;;-144.99;100.00;52592.81;5021629;28;20029;-64
2021/11/14 00:19:23;;;;;;;;;;;;;;;-144.99;100.00;52607.09;5018286;28;19988;-65
2021/11/14 00:21:49;;;;;;;;;;;;;;;-144.99;100.00;52582.63;5020944;28;20457;-64
2021/11/14 00:24:16;;;;;;;;;;;;;;;-144.99;100.00;52607.09;5017868;28;20397;-64
2021/11/14 00:26:43;;;;;;;;;;;;;;;-144.99;100.00;52578.53;5024633;28;19981;-68
2021/11/14 00:29:12;;;;;;;;;;;;;;;-144.99;100.00;52572.44;5023533;28;19993;-67
2021/11/14 00:31:39;;;;;;;;;;;;;;;-144.99;100.00;52582.63;5024939;28;19983;-67
2021/11/14 00:34:05;;;;;;;;;;;;;;;-144.99;100.00;52556.13;5023239;28;19994;-67
2021/11/14 00:36:33;;;;;;;;;;;;;;;-144.99;100.00;52543.91;5028311;28;20036;-68
2021/11/14 00:38:59;;;;;;;;;;;;;;;-144.99;100.00;52586.69;5027013;28;19978;-67
2021/11/14 00:41:26;;;;;;;;;;;;;;;-144.99;100.00;52550.00;5024256;28;19988;-65
2021/11/14 00:43:53;;;;;;;;;;;;;;;-144.99;100.00;52603.00;5030263;28;20008;-66
2021/11/14 00:46:21;;;;;;;;;;;;;;;-144.99;100.00;52574.47;5029271;28;20326;-66
2021/11/14 00:48:47;;;;;;;;;;;;;;;-144.99;100.00;52578.53;5028466;28;20378;-66
2021/11/14 00:51:15;;;;;;;;;;;;;;;-144.99;100.00;52578.53;5030974;28;19985;-66
2021/11/14 00:53:42;;;;;;;;;;;;;;;-144.99;100.00;52578.53;5030824;28;20005;-66
2021/11/14 00:56:09;;;;;;;;;;;;;;;-144.99;100.00;52588.75;5030458;28;19977;-65
2021/11/14 00:58:35;;;;;;;;;;;;;;;-144.99;100.00;52566.31;5029867;28;20521;-66
2021/11/14 01:01:02;;;;;;;;;;;;;;;-144.99;100.00;52623.38;5030814;28;19985;-67
2021/11/14 01:03:29;;;;;;;;;;;;;;;-144.99;100.00;52574.47;5030608;28;20479;-66
2021/11/14 01:05:56;;;;;;;;;;;;;;;-144.99;100.00;52596.88;5031073;28;20353;-69
2021/11/14 01:08:23;;;;;;;;;;;;;;;-144.99;100.00;52582.63;5031322;28;20008;-69
2021/11/14 01:10:50;;;;;;;;;;;;;;;-144.99;100.00;52611.16;5016860;28;19974;-70
2021/11/14 01:13:17;;;;;;;;;;;;;;;-144.99;100.00;52578.53;5023739;28;19996;-68
2021/11/14 01:15:44;;;;;;;;;;;;;;;-144.99;100.00;52570.38;5023853;28;19974;-67
2021/11/14 01:18:11;;;;;;;;;;;;;;;-144.99;100.00;52554.09;5025270;28;19974;-67
2021/11/14 01:20:40;;;;;;;;;;;;;;;-144.99;100.00;52570.38;5023883;28;19984;-67
2021/11/14 01:23:07;;;;;;;;;;;;;;;-144.99;100.00;52582.63;5025939;28;20000;-67
2021/11/14 01:25:35;;;;;;;;;;;;;;;-144.99;100.00;52590.78;5020682;28;19974;-67
2021/11/14 01:28:01;;;;;;;;;;;;;;;-144.99;100.00;52611.16;5018838;28;19955;-67
2021/11/14 01:30:29;;;;;;;;;;;;;;;-144.99;100.00;52560.19;5025636;28;20418;-67
2021/11/14 01:32:57;;;;;;;;;;;;;;;-144.99;100.00;52586.69;5022221;28;19989;-66
2021/11/14 01:35:23;;;;;;;;;;;;;;;-144.99;100.00;52582.63;5020674;28;19985;-65
2021/11/14 01:37:52;;;;;;;;;;;;;;;-144.99;100.00;52578.53;5020709;28;20581;-65
2021/11/14 01:40:20;;;;;;;;;;;;;;;-144.99;100.00;52594.84;5024406;28;20357;-66
2021/11/14 01:42:47;;;;;;;;;;;;;;;-144.99;100.00;52574.47;5037420;28;19998;-66
2021/11/14 01:45:14;;;;;;;;;;;;;;;-144.99;100.00;52594.84;5039629;28;20541;-67
2021/11/14 01:47:41;;;;;;;;;;;;;;;-144.99;100.00;52582.63;5037393;28;19978;-66
2021/11/14 01:50:08;;;;;;;;;;;;;;;-144.99;100.00;52578.53;5021602;28;19994;-66
2021/11/14 01:52:34;;;;;;;;;;;;;;;-144.99;100.00;52539.81;5021579;28;19993;-66
2021/11/14 01:55:03;;;;;;;;;;;;;;;-144.99;100.00;52605.03;5020744;28;20005;-66
2021/11/14 01:57:30;;;;;;;;;;;;;;;-144.99;100.00;52580.59;5016815;28;20405;-66
2021/11/14 01:59:56;;;;;;;;;;;;;;;-144.99;100.00;52594.84;5021697;28;19974;-66
2021/11/14 02:02:23;;;;;;;;;;;;;;;-144.99;100.00;52586.69;5024307;28;19997;-66
2021/11/14 02:04:49;;;;;;;;;;;;;;;-144.99;100.00;52574.47;5023195;28;19988;-66
2021/11/14 02:07:17;;;;;;;;;;;;;;;-144.99;100.00;52570.38;5024592;28;19974;-65
2021/11/14 02:09:44;;;;;;;;;;;;;;;-144.99;100.00;52598.94;5020241;28;20006;-66
2021/11/14 02:12:12;;;;;;;;;;;;;;;-144.99;100.00;52564.28;5022156;28;19981;-68
2021/11/14 02:14:39;;;;;;;;;;;;;;;-144.99;100.00;52545.94;5023295;28;19985;-66
2021/11/14 02:17:05;;;;;;;;;;;;;;;-144.99;100.00;52558.16;5020300;28;20068;-65
2021/11/14 02:19:32;;;;;;;;;;;;;;;-144.99;100.00;52605.03;5021040;28;19977;-66
2021/11/14 02:22:00;;;;;;;;;;;;;;;-144.99;100.00;52582.63;5018021;28;19984;-65
2021/11/14 02:24:26;;;;;;;;;;;;;;;-144.99;100.00;52607.09;5019514;28;20467;-65
2021/11/14 02:26:53;;;;;;;;;;;;;;;-144.99;100.00;52562.25;5021104;28;19978;-66
2021/11/14 02:29:19;;;;;;;;;;;;;;;-144.99;100.00;52586.69;5020677;28;20473;-65
2021/11/14 02:31:48;;;;;;;;;;;;;;;-144.99;100.00;52611.16;5019494;28;19974;-67
2021/11/14 02:34:14;;;;;;;;;;;;;;;-144.99;100.00;52582.63;5024182;28;20017;-66
2021/11/14 02:36:41;;;;;;;;;;;;;;;-144.99;100.00;52588.75;5024042;28;19982;-65
2021/11/14 02:39:09;;;;;;;;;;;;;;;-144.99;100.00;52574.47;5019187;28;19983;-65
2021/11/14 02:41:35;;;;;;;;;;;;;;;-144.99;100.00;52586.69;5024213;28;19981;-65
2021/11/14 02:44:02;;;;;;;;;;;;;;;-144.99;100.00;52560.19;5017464;28;20512;-64
2021/11/14 02:46:28;;;;;;;;;;;;;;;-144.99;100.00;52609.13;5022200;28;20075;-68
2021/11/14 02:48:54;;;;;;;;;;;;;;;-144.99;100.00;52603.00;5020151;28;20156;-68
2021/11/14 02:51:22;;;;;;;;;;;;;;;-144.99;100.00;52615.25;5025328;28;19977;-68
2021/11/14 02:53:49;;;;;;;;;;;;;;;-144.99;100.00;52574.47;5025428;28;20000;-67
2021/11/14 02:56:17;;;;;;;;;;;;;;;-144.99;100.00;52554.09;5028496;28;19991;-66
2021/11/14 02:58:44;;;;;;;;;;;;;;;-144.99;100.00;52590.78;5028020;28;19985;-66
2021/11/14 03:01:12;;;;;;;;;;;;;;;-144.99;100.00;52578.53;5028479;28;19985;-67
2021/11/14 03:03:39;;;;;;;;;;;;;;;-144.99;100.00;52594.84;5016623;28;20482;-68
2021/11/14 03:06:06;;;;;;;;;;;;;;;-144.99;100.00;52558.16;5028412;28;20102;-67
2021/11/14 03:08:34;;;;;;;;;;;;;;;-144.99;100.00;52584.66;5026126;28;20462;-69
2021/11/14 03:11:00;;;;;;;;;;;;;;;-144.99;100.00;52611.16;5028733;28;19988;-67
2021/11/14 03:13:28;;;;;;;;;;;;;;;-144.99;100.00;52554.09;5027262;28;20048;-69
2021/11/14 03:15:56;;;;;;;;;;;;;;;-144.99;100.00;52552.03;5028431;28;19978;-67
2021/11/14 03:18:23;;;;;;;;;;;;;;;-144.99;100.00;52558.16;5014809;28;20080;-67
2021/11/14 03:20:51;;;;;;;;;;;;;;;-144.99;100.00;52590.78;5026158;28;19981;-67
2021/11/14 03:23:18;;;;;;;;;;;;;;;-144.99;100.00;52607.09;5015003;28;19993;-67
2021/11/14 03:25:45;;;;;;;;;;;;;;;-144.99;100.00;52598.94;5028093;28;20000;-68
2021/11/14 03:28:12;;;;;;;;;;;;;;;-144.99;100.00;52590.78;5027213;28;20431;-66
2021/11/14 03:30:40;;;;;;;;;;;;;;;-144.99;100.00;52586.69;5028654;28;20451;-65
2021/11/14 03:33:08;;;;;;;;;;;;;;;-144.99;100.00;52578.53;5021443;28;20000;-67
2021/11/14 03:35:39;;;;;;;;;;;;;;;-144.99;100.00;52611.16;5027889;28;20048;-65
2021/11/14 03:38:06;;;;;;;;;;;;;;;-144.99;100.00;52554.09;5020611;28;19985;-66
2021/11/14 03:40:33;;;;;;;;;;;;;;;-144.99;100.00;52570.38;5019492;28;19982;-65
2021/11/14 03:42:59;;;;;;;;;;;;;;;-144.99;100.00;52578.53;5021258;28;20474;-66
2021/11/14 03:45:26;;;;;;;;;;;;;;;-144.99;100.00;52578.53;5021699;28;20465;-67
2021/11/14 03:47:54;;;;;;;;;;;;;;;-144.99;100.00;52582.63;5020904;28;20535;-67
2021/11/14 03:50:20;;;;;;;;;;;;;;;-144.99;100.00;52588.75;5018239;28;20374;-66
2021/11/14 03:52:47;;;;;;;;;;;;;;;-144.99;100.00;52623.38;5019077;28;20505;-66
2021/11/14 03:55:15;;;;;;;;;;;;;;;-144.99;100.00;52578.53;5018197;28;19978;-66
2021/11/14 03:57:41;;;;;;;;;;;;;;;-144.99;100.00;52584.66;5018484;28;20438;-66
2021/11/14 04:00:13;;;;;;;;;;;;;;;-144.99;100.00;52594.84;5014179;28;20372;-70
2021/11/14 04:02:40;;;;;;;;;;;;;;;-144.99;100.00;52566.31;4722458;28;10000448;-70
2021/11/14 04:05:09;;;;;;;;;;;;;;;-144.99;100.00;52586.69;5020309;28;19984;-69
2021/11/14 04:07:36;;;;;;;;;;;;;;;-144.99;100.00;52607.09;5017385;28;20454;-69
2021/11/14 04:10:02;;;;;;;;;;;;;;;-144.99;100.00;52613.19;5019308;28;20000;-66
2021/11/14 04:12:29;;;;;;;;;;;;;;;-144.99;100.00;52566.31;5021646;28;20335;-70
2021/11/14 04:14:55;;;;;;;;;;;;;;;-144.99;100.00;52586.69;5021503;28;19973;-70
2021/11/14 04:17:22;;;;;;;;;;;;;;;-144.99;100.00;52590.78;5012795;28;19978;-70
2021/11/14 04:19:48;;;;;;;;;;;;;;;-144.99;100.00;52584.66;5040549;28;19974;-70
2021/11/14 04:22:16;;;;;;;;;;;;;;;-144.99;100.00;52603.00;5034516;28;19988;-70
2021/11/14 04:24:42;;;;;;;;;;;;;;;-144.99;100.00;52562.25;5034439;28;20190;-70
2021/11/14 04:27:09;;;;;;;;;;;;;;;-144.99;100.00;52611.16;5020637;28;19981;-69
2021/11/14 04:29:35;;;;;;;;;;;;;;;-144.99;100.00;52578.53;5024631;28;19990;-69
2021/11/14 04:32:02;;;;;;;;;;;;;;;-144.99;100.00;52566.31;5018032;28;20457;-68
2021/11/14 04:34:28;;;;;;;;;;;;;;;-144.99;100.00;52554.09;5022067;28;19978;-68
2021/11/14 04:36:55;;;;;;;;;;;;;;;-144.99;100.00;52586.69;5026923;28;19988;-67
2021/11/14 04:39:23;;;;;;;;;;;;;;;-144.99;100.00;52574.47;5017514;28;20368;-67
2021/11/14 04:41:49;;;;;;;;;;;;;;;-144.99;100.00;52578.53;5024196;28;19981;-67
2021/11/14 04:44:15;;;;;;;;;;;;;;;-144.99;100.00;52580.59;5036757;28;19976;-67
2021/11/14 04:46:42;;;;;;;;;;;;;;;-144.99;100.00;52586.69;5046986;28;19977;-66
2021/11/14 04:49:08;;;;;;;;;;;;;;;-144.99;100.00;52611.16;5039310;28;20068;-67
2021/11/14 04:51:35;;;;;;;;;;;;;;;-144.99;100.00;52590.78;5043333;28;20075;-65
2021/11/14 04:54:01;;;;;;;;;;;;;;;-144.99;100.00;52598.94;5046817;28;20243;-65
2021/11/14 04:56:29;;;;;;;;;;;;;;;-144.99;100.00;52607.09;5045643;28;19978;-66
2021/11/14 04:58:56;;;;;;;;;;;;;;;-144.99;100.00;52594.84;5044174;28;20037;-65
2021/11/14 05:01:22;;;;;;;;;;;;;;;-144.99;100.00;52590.78;5022272;28;20021;-66
2021/11/14 05:03:48;;;;;;;;;;;;;;;-144.99;100.00;52566.31;5048954;22;20508;-61
2021/11/14 05:06:18;;;;;;;;;;;;;;;-144.99;100.00;52590.78;5055287;28;19979;-62
2021/11/14 05:08:44;;;;;;;;;;;;;;;-144.99;100.00;52554.09;5049159;28;19987;-61
2021/11/14 05:11:11;;;;;;;;;;;;;;;-144.99;100.00;52619.31;5046373;28;19996;-61
2021/11/14 05:13:39;;;;;;;;;;;;;;;-144.99;100.00;52574.47;5042747;28;20004;-61
2021/11/14 05:16:05;;;;;;;;;;;;;;;-144.99;100.00;52574.47;5033119;28;20353;-61
2021/11/14 05:18:32;;;;;;;;;;;;;;;-144.99;100.00;52611.16;5033027;28;20438;-62
2021/11/14 05:20:59;;;;;;;;;;;;;;;-144.99;100.00;52568.34;5032231;28;19977;-61
2021/11/14 05:23:25;;;;;;;;;;;;;;;-144.99;100.00;52590.78;5031466;28;20088;-61
2021/11/14 05:25:52;;;;;;;;;;;;;;;-144.99;100.00;52594.84;5026341;28;20060;-62
2021/11/14 05:28:18;;;;;;;;;;;;;;;-144.99;100.00;52603.00;5032215;28;19985;-61
2021/11/14 05:30:47;;;;;;;;;;;;;;;-144.99;100.00;52578.53;5032905;28;20012;-62
2021/11/14 05:33:14;;;;;;;;;;;;;;;-144.99;100.00;52582.63;5029993;28;20066;-62
2021/11/14 05:35:40;;;;;;;;;;;;;;;-144.99;100.00;52586.69;5032370;28;19977;-62
2021/11/14 05:38:07;;;;;;;;;;;;;;;-144.99;100.00;52562.25;5032095;28;19985;-62
2021/11/14 05:40:33;;;;;;;;;;;;;;;-144.99;100.00;52596.88;5026337;28;20441;-62
2021/11/14 05:43:00;;;;;;;;;;;;;;;-144.99;100.00;52590.78;5031741;28;20000;-62
2021/11/14 05:45:26;;;;;;;;;;;;;;;-144.99;100.00;52578.53;5032716;28;20077;-62
2021/11/14 05:47:54;;;;;;;;;;;;;;;-144.99;100.00;52574.47;5032232;28;20064;-62
2021/11/14 05:50:24;;;;;;;;;;;;;;;-144.99;100.00;52598.94;5031689;28;20450;-67
2021/11/14 05:52:51;;;;;;;;;;;;;;;-144.99;100.00;52566.31;5017531;28;20004;-68
2021/11/14 05:55:18;;;;;;;;;;;;;;;-144.99;100.00;52554.09;5020781;28;20103;-65
2021/11/14 05:57:50;;;;;;;;;;;;;;;-144.99;100.00;52586.69;5029226;28;20041;-66
2021/11/14 06:00:21;;;;;;;;;;;;;;;-144.99;100.00;52578.53;5036590;28;19980;-60
2021/11/14 06:02:50;;;;;;;;;;;;;;;-144.99;100.00;52574.47;5027884;28;20088;-60
2021/11/14 06:05:17;;;;;;;;;;;;;;;-144.99;100.00;52611.16;5027914;28;20033;-61
2021/11/14 06:07:45;;;;;;;;;;;;;;;-144.99;100.00;52586.69;5032451;28;20050;-60
2021/11/14 06:10:12;;;;;;;;;;;;;;;-144.99;100.00;52590.78;5028888;28;19989;-60
2021/11/14 06:12:38;;;;;;;;;;;;;;;-144.99;100.00;52574.47;5035678;28;20032;-60
2021/11/14 06:15:06;;;;;;;;;;;;;;;-144.99;100.00;52578.53;5034256;28;19994;-59
2021/11/14 06:17:32;;;;;;;;;;;;;;;-144.99;100.00;52576.50;5027945;28;19984;-58
2021/11/14 06:19:59;;;;;;;;;;;;;;;-144.99;100.00;52554.09;5025820;28;19973;-59
2021/11/14 06:22:26;;;;;;;;;;;;;;;-144.99;100.00;52582.63;5021679;28;19993;-59
2021/11/14 06:24:53;;;;;;;;;;;;;;;-144.99;100.00;52594.84;5023968;28;19997;-59
2021/11/14 06:27:19;;;;;;;;;;;;;;;-144.99;100.00;52578.53;5020803;28;20438;-59
2021/11/14 06:29:46;;;;;;;;;;;;;;;-144.99;100.00;52596.88;5021593;28;19981;-59
2021/11/14 06:32:12;;;;;;;;;;;;;;;-144.99;100.00;52592.81;5019575;28;19988;-59
2021/11/14 06:34:39;;;;;;;;;;;;;;;-144.99;100.00;52590.78;5019909;28;20000;-59
2021/11/14 06:37:05;;;;;;;;;;;;;;;-144.99;100.00;52607.09;5022001;28;19974;-59
2021/11/14 06:39:33;;;;;;;;;;;;;;;-144.99;100.00;52582.63;5023193;28;20317;-59
2021/11/14 06:42:00;;;;;;;;;;;;;;;-144.99;100.00;52588.75;5022161;28;20166;-59
2021/11/14 06:44:27;;;;;;;;;;;;;;;-144.99;100.00;52558.16;5023665;28;19977;-59
2021/11/14 06:46:55;;;;;;;;;;;;;;;-144.99;100.00;52607.09;5027661;28;19985;-59
2021/11/14 06:49:21;;;;;;;;;;;;;;;-144.99;100.00;52607.09;5024598;28;20115;-59
2021/11/14 06:51:48;;;;;;;;;;;;;;;-144.99;100.00;52603.00;5021211;28;19993;-59
2021/11/14 06:54:14;;;;;;;;;;;;;;;-144.99;100.00;52541.84;5018277;28;20081;-60
2021/11/14 06:56:42;;;;;;;;;;;;;;;-144.99;100.00;52586.69;5019117;28;19974;-63
2021/11/14 06:59:09;;;;;;;;;;;;;;;-144.99;100.00;52578.53;5019484;28;20000;-63
2021/11/14 07:01:35;;;;;;;;;;;;;;;-144.99;100.00;52598.94;5024117;28;19978;-65
2021/11/14 07:04:02;;;;;;;;;;;;;;;-144.99;100.00;52607.09;5020667;28;20100;-64
2021/11/14 07:06:28;;;;;;;;;;;;;;;-144.99;100.00;52596.88;5023427;28;20335;-65
2021/11/14 07:08:55;;;;;;;;;;;;;;;-144.99;100.00;52621.34;5018648;28;19974;-63
2021/11/14 07:11:21;;;;;;;;;;;;;;;-144.99;100.00;52611.16;5021077;28;19993;-62
2021/11/14 07:13:49;;;;;;;;;;;;;;;-144.99;100.00;52603.00;5023492;28;20373;-63
2021/11/14 07:16:15;;;;;;;;;;;;;;;-144.99;100.00;52603.00;5022526;28;20064;-62
2021/11/14 07:18:42;;;;;;;;;;;;;;;-144.99;100.00;52598.94;5021384;28;19988;-62
2021/11/14 07:21:08;;;;;;;;;;;;;;;-144.99;100.00;52643.78;5023323;28;20151;-62
2021/11/14 07:23:35;;;;;;;;;;;;;;;-144.99;100.00;52541.84;5020485;28;19998;-64
2021/11/14 07:26:01;;;;;;;;;;;;;;;-144.99;100.00;52594.84;5019718;28;19974;-67
2021/11/14 07:28:28;;;;;;;;;;;;;;;-144.99;100.00;52562.25;5019040;28;20085;-67
2021/11/14 07:30:55;;;;;;;;;;;;;;;-144.99;100.00;52611.16;5020621;28;20000;-68
2021/11/14 07:33:22;;;;;;;;;;;;;;;-144.99;100.00;52603.00;5018308;28;19998;-64
2021/11/14 07:35:48;;;;;;;;;;;;;;;-144.99;100.00;52603.00;5024897;28;19981;-62
2021/11/14 07:38:15;;;;;;;;;;;;;;;-144.99;100.00;52607.09;5020282;28;20365;-61
2021/11/14 07:40:41;;;;;;;;;;;;;;;-144.99;100.00;52590.78;5020657;28;19981;-60
2021/11/14 07:43:08;;;;;;;;;;;;;;;-144.99;100.00;52578.53;5018309;28;19990;-60
2021/11/14 07:45:34;;;;;;;;;;;;;;;-144.99;100.00;52590.78;5018989;28;20486;-60
2021/11/14 07:48:03;;;;;;;;;;;;;;;-144.99;100.00;52619.31;5021725;28;19980;-60
2021/11/14 07:50:30;;;;;;;;;;;;;;;-144.99;100.00;52580.59;5019117;28;20084;-61
2021/11/14 07:52:57;;;;;;;;;;;;;;;-144.99;100.00;52600.97;5020969;28;19990;-61
2021/11/14 07:55:24;;;;;;;;;;;;;;;-144.99;100.00;52576.50;5023243;28;20415;-61
2021/11/14 07:57:50;;;;;;;;;;;;;;;-144.99;100.00;52582.63;5019279;28;19982;-64
2021/11/14 08:00:18;;;;;;;;;;;;;;;-144.99;100.00;52615.25;5020554;28;19974;-61
2021/11/14 08:02:45;;;;;;;;;;;;;;;-144.99;100.00;52582.63;5016040;28;19990;-61
2021/11/14 08:05:13;;;;;;;;;;;;;;;-144.99;100.00;52541.84;5016686;28;20325;-61
2021/11/14 08:07:40;;;;;;;;;;;;;;;-144.99;100.00;52594.84;5018706;28;20124;-62
2021/11/14 08:10:07;;;;;;;;;;;;;;;-144.99;100.00;52623.38;5024945;28;20005;-62
2021/11/14 08:12:34;;;;;;;;;;;;;;;-144.99;100.00;52562.25;5028620;28;20020;-61
2021/11/14 08:15:00;;;;;;;;;;;;;;;-144.99;100.00;52594.84;5021897;28;19977;-61
2021/11/14 08:17:27;;;;;;;;;;;;;;;-144.99;100.00;52578.53;5017853;28;20000;-64
2021/11/14 08:19:55;;;;;;;;;;;;;;;-144.99;100.00;52586.69;5021487;28;19984;-62
2021/11/14 08:22:22;;;;;;;;;;;;;;;-144.99;100.00;52588.75;5020589;28;19998;-61
2021/11/14 08:24:49;;;;;;;;;;;;;;;-144.99;100.00;52568.34;5023704;28;19981;-61
2021/11/14 08:27:15;;;;;;;;;;;;;;;-144.99;100.00;52562.25;5019775;28;20000;-60
2021/11/14 08:29:42;;;;;;;;;;;;;;;-144.99;100.00;52590.78;5022130;28;20016;-61
2021/11/14 08:32:09;;;;;;;;;;;;;;;-144.99;100.00;52545.94;5022444;28;20253;-62
2021/11/14 08:34:36;;;;;;;;;;;;;;;-144.99;100.00;52564.28;5020986;28;20407;-62
2021/11/14 08:37:02;;;;;;;;;;;;;;;-144.99;100.00;52562.25;5017272;28;20365;-62
2021/11/14 08:39:30;;;;;;;;;;;;;;;-144.99;100.00;52594.84;5019498;28;19978;-61
2021/11/14 08:41:56;;;;;;;;;;;;;;;-144.99;100.00;52566.31;5022979;28;19974;-62
2021/11/14 08:44:25;;;;;;;;;;;;;;;-144.99;100.00;52603.00;5026356;28;19999;-61
2021/11/14 08:46:52;;;;;;;;;;;;;;;-144.99;100.00;52582.63;5029071;28;20021;-61
2021/11/14 08:49:18;;;;;;;;;;;;;;;-144.99;100.00;52594.84;5026726;28;20478;-62
2021/11/14 08:51:45;;;;;;;;;;;;;;;-144.99;100.00;52547.97;5023687;28;20455;-67
2021/11/14 08:54:13;;;;;;;;;;;;;;;-144.99;100.00;52550.00;5024846;28;20009;-66
2021/11/14 08:56:41;;;;;;;;;;;;;;;-144.99;100.00;52541.84;5018101;28;19961;-67
2021/11/14 08:59:08;;;;;;;;;;;;;;;-144.99;100.00;52566.31;5024075;28;20076;-67
2021/11/14 09:01:35;;;;;;;;;;;;;;;-144.99;100.00;52566.31;5023858;28;20128;-67
2021/11/14 09:04:01;;;;;;;;;;;;;;;-144.99;100.00;52578.53;5015997;28;19997;-66
2021/11/14 09:06:28;;;;;;;;;;;;;;;-144.99;100.00;52568.34;5020947;28;19982;-69
2021/11/14 09:08:55;;;;;;;;;;;;;;;-144.99;100.00;52574.47;5022212;28;20458;-68
2021/11/14 09:11:22;;;;;;;;;;;;;;;-144.99;100.00;52531.66;5020041;28;20090;-67
2021/11/14 09:13:50;;;;;;;;;;;;;;;-144.99;99.79;52570.38;5025874;28;19989;-68
2021/11/14 09:16:16;;;;;;;;;;;;;;;-144.99;100.00;52598.94;5026692;28;19980;-67
2021/11/14 09:18:43;;;;;;;;;;;;;;;-144.99;100.00;52541.84;5023209;28;19988;-67
2021/11/14 09:21:09;;;;;;;;;;;;;;;-144.99;100.00;52570.38;5024871;28;20060;-66
2021/11/14 09:23:36;;;;;;;;;;;;;;;-144.99;100.00;52598.94;5020984;28;19989;-67
2021/11/14 09:26:02;;;;;;;;;;;;;;;-144.99;99.74;52562.25;5026420;28;20395;-70
2021/11/14 09:28:29;;;;;;;;;;;;;;;-144.99;99.85;52562.25;5032915;28;19985;-67
2021/11/14 09:31:00;;;;;;;;;;;;;;;-144.99;99.32;52574.47;5018558;28;19978;-67
2021/11/14 09:33:27;;;;;;;;;;;;;;;-144.99;99.12;52545.94;5032857;28;19997;-66
2021/11/14 09:35:57;;;;;;;;;;;;;;;-144.99;97.64;52598.94;5032952;28;20053;-66
2021/11/14 09:38:23;;;;;;;;;;;;;;;-144.99;97.53;52578.53;5032888;28;20114;-67
2021/11/14 09:40:50;;;;;;;;;;;;;;;-144.99;98.02;52580.59;5032086;28;19978;-68
2021/11/14 09:43:18;;;;;;;;;;;;;;;-144.99;98.51;52562.25;5032127;28;19996;-66
2021/11/14 09:45:45;;;;;;;;;;;;;;;-144.99;98.91;52566.31;5031550;28;20264;-68
2021/11/14 09:48:12;;;;;;;;;;;;;;;-144.99;98.37;52537.78;5026476;28;20282;-68
2021/11/14 09:50:39;;;;;;;;;;;;;;;-144.99;98.63;52578.53;5020585;28;20309;-68
2021/11/14 09:53:06;;;;;;;;;;;;;;;-144.99;98.65;52592.81;5019605;28;20473;-66
2021/11/14 09:55:35;;;;;;;;;;;;;;;-144.99;98.87;52578.53;5021996;28;19995;-67
2021/11/14 09:58:02;;;;;;;;;;;;;;;-144.99;98.54;52605.03;5019321;28;19957;-66
2021/11/14 10:00:28;;;;;;;;;;;;;;;-144.99;97.21;52558.16;5020251;28;20299;-66
2021/11/14 10:02:55;;;;;;;;;;;;;;;-144.99;97.57;52552.03;5020878;28;20422;-66
2021/11/14 10:05:22;;;;;;;;;;;;;;;-144.99;97.41;52562.25;5024186;28;20419;-66
2021/11/14 10:07:57;;;;;;;;;;;;;;;-144.99;95.54;52545.94;5022442;28;19982;-66
2021/11/14 10:10:25;;;;;;;;;;;;;;;-144.99;95.83;52541.84;5020170;28;19977;-69
2021/11/14 10:12:51;;;;;;;;;;;;;;;-144.99;95.18;52533.69;5022354;28;20043;-67
2021/11/14 10:15:20;;;;;;;;;;;;;;;-144.99;95.45;52582.63;5024296;28;20483;-66
2021/11/14 10:17:47;;;;;;;;;;;;;;;-144.99;94.86;52594.84;5027782;28;20423;-67
2021/11/14 10:20:16;;;;;;;;;;;;;;;-144.99;95.38;52592.81;5023706;28;19981;-68
2021/11/14 10:22:45;;;;;;;;;;;;;;;-144.99;93.50;52558.16;5021955;28;19998;-66
2021/11/14 10:25:13;;;;;;;;;;;;;;;-144.99;92.62;52562.25;5022342;28;20096;-68
2021/11/14 10:27:40;;;;;;;;;;;;;;;-144.99;92.64;52562.25;5022122;28;20511;-66
2021/11/14 10:30:08;;;;;;;;;;;;;;;-144.99;92.06;52552.03;5019962;28;19974;-67
2021/11/14 10:32:34;;;;;;;;;;;;;;;-144.99;91.35;52562.25;5020999;28;19997;-69
2021/11/14 10:35:02;;;;;;;;;;;;;;;-144.99;91.26;52562.25;5021554;28;19981;-67
2021/11/14 10:37:30;;;;;;;;;;;;;;;-144.99;92.35;52576.50;5031691;28;19982;-67
2021/11/14 10:39:59;;;;;;;;;;;;;;;-144.99;91.49;52554.09;5022744;28;19988;-66
2021/11/14 10:42:27;;;;;;;;;;;;;;;-144.99;91.04;52562.25;5031974;28;20089;-67
2021/11/14 10:44:54;;;;;;;;;;;;;;;-144.99;91.77;52554.09;5030925;28;19977;-67
2021/11/14 10:47:23;;;;;;;;;;;;;;;-144.99;92.49;52550.00;5031023;28;20228;-65
2021/11/14 10:49:53;;;;;;;;;;;;;;;-144.99;93.31;52545.94;5024126;28;20360;-65
2021/11/14 10:52:20;;;;;;;;;;;;;;;-144.99;91.51;52552.03;5030838;28;19999;-65
2021/11/14 10:54:50;;;;;;;;;;;;;;;-144.99;92.31;52501.09;5030572;28;20068;-65
2021/11/14 10:57:18;;;;;;;;;;;;;;;-144.99;89.00;52547.97;5029864;28;20035;-65
2021/11/14 10:59:49;;;;;;;;;;;;;;;-144.99;88.78;52582.63;5025492;28;20028;-64
2021/11/14 11:02:17;;;;;;;;;;;;;;;-144.99;86.93;52594.84;5029016;28;19985;-64
2021/11/14 11:04:44;;;;;;;;;;;;;;;-144.99;83.83;52570.38;5044055;22;20021;-68
2021/11/14 11:07:11;;;;;;;;;;;;;;;-144.99;83.09;52562.25;5058961;28;19973;-68
2021/11/14 11:09:39;;;;;;;;;;;;;;;-144.99;81.29;52566.31;5052145;28;19978;-68
2021/11/14 11:12:15;;;;;;;;;;;;;;;-144.99;82.92;52543.91;5050255;28;19997;-68
2021/11/14 11:14:52;;;;;;;;;;;;;;;-144.99;82.49;52554.09;5032260;28;20088;-67
2021/11/14 11:17:18;;;;;;;;;;;;;;;-144.99;81.09;52541.84;5030448;28;19977;-67
2021/11/14 11:19:44;;;;;;;;;;;;;;;-144.99;81.10;52562.25;5029272;28;20003;-67
2021/11/14 11:22:11;;;;;;;;;;;;;;;-144.99;80.99;52550.00;5027496;28;19974;-71
2021/11/14 11:24:48;;;;;;;;;;;;;;;-144.99;80.55;52580.59;5030254;28;20217;-71
2021/11/14 11:27:14;;;;;;;;;;;;;;;-144.99;81.21;52562.25;5028849;28;20000;-71
2021/11/14 11:29:41;;;;;;;;;;;;;;;-144.99;81.28;52521.47;5019395;28;19978;-71
2021/11/14 11:32:09;;;;;;;;;;;;;;;-144.99;81.74;52556.13;5030964;28;20091;-71
2021/11/14 11:34:36;;;;;;;;;;;;;;;-144.99;81.74;52574.47;5030694;28;19986;-71
2021/11/14 11:37:03;;;;;;;;;;;;;;;-144.99;81.53;52560.19;5030643;28;20068;-70
2021/11/14 11:39:29;;;;;;;;;;;;;;;-144.99;80.97;52594.84;5020943;28;19974;-71
2021/11/14 11:41:58;;;;;;;;;;;;;;;-144.99;81.50;52570.38;5032289;28;19989;-71
2021/11/14 11:44:25;;;;;;;;;;;;;;;-144.99;81.59;52568.34;5031883;28;20502;-71
2021/11/14 11:46:53;;;;;;;;;;;;;;;-144.99;82.10;52566.31;5034011;28;19985;-70
2021/11/14 11:49:23;;;;;;;;;;;;;;;-144.99;82.11;52578.53;5033725;28;20056;-71
2021/11/14 11:51:50;;;;;;;;;;;;;;;-144.99;82.47;52570.38;5033236;28;20003;-71
2021/11/14 11:54:18;;;;;;;;;;;;;;;-144.99;82.60;52547.97;5032595;28;20010;-70
2021/11/14 11:56:46;;;;;;;;;;;;;;;-144.99;82.79;52570.38;5030623;28;20017;-70
2021/11/14 11:59:14;;;;;;;;;;;;;;;-144.99;82.16;52603.00;5032086;28;20470;-71
2021/11/14 12:01:45;;;;;;;;;;;;;;;-144.99;82.08;52562.25;5029856;28;20429;-70
2021/11/14 12:04:13;;;;;;;;;;;;;;;-144.99;82.14;52592.81;5029169;28;20000;-71
2021/11/14 12:06:43;;;;;;;;;;;;;;;-144.99;82.75;52594.84;5029025;28;19984;-72
2021/11/14 12:09:11;;;;;;;;;;;;;;;-144.99;82.60;52578.53;5029712;28;19951;-70
2021/11/14 12:11:38;;;;;;;;;;;;;;;-144.99;83.20;52582.63;5029704;28;20016;-73
2021/11/14 12:14:14;;;;;;;;;;;;;;;-144.99;82.90;52554.09;5029482;28;19968;-73
2021/11/14 12:16:41;;;;;;;;;;;;;;;-144.99;82.72;52598.94;5027720;28;20389;-72
2021/11/14 12:19:19;;;;;;;;;;;;;;;-144.99;83.29;52570.38;5028243;28;20110;-72
2021/11/14 12:21:55;;;;;;;;;;;;;;;-144.99;83.67;52627.47;5024880;28;20432;-70